createdAt,value
2018-06-27T00:00:00.143Z,14.26
2018-06-27T00:02:28.988Z,14.30
2018-06-27T00:04:58.333Z,14.16
2018-06-27T00:07:27.406Z,14.21
2018-06-27T00:09:56.187Z,14.32
2018-06-27T00:12:25.093Z,14.40
2018-06-27T00:14:53.939Z,14.51
2018-06-27T00:17:23.041Z,14.48
2018-06-27T00:19:51.862Z,14.49
2018-06-27T00:22:20.696Z,14.42
2018-06-27T00:24:49.511Z,14.23
2018-06-27T00:27:18.311Z,14.23
2018-06-27T00:29:47.235Z,14.25
2018-06-27T00:32:16.039Z,14.15
2018-06-27T00:34:44.840Z,14.07
2018-06-27T00:37:13.637Z,13.96
2018-06-27T00:39:42.478Z,13.98
2018-06-27T00:42:11.276Z,14.04
2018-06-27T00:44:40.421Z,13.99
2018-06-27T00:47:09.192Z,14.03
2018-06-27T00:49:37.957Z,13.94
2018-06-27T00:52:07.124Z,13.86
2018-06-27T00:54:35.901Z,13.87
2018-06-27T00:57:04.710Z,13.86
2018-06-27T00:59:33.828Z,13.96
2018-06-27T01:02:02.599Z,13.97
2018-06-27T01:04:31.420Z,14.04
2018-06-27T01:07:00.352Z,14.02
2018-06-27T01:09:29.154Z,14.03
2018-06-27T01:11:57.956Z,14.07
2018-06-27T01:14:26.845Z,14.09
2018-06-27T01:16:55.669Z,13.96
2018-06-27T01:19:24.436Z,13.82
2018-06-27T01:21:53.288Z,13.92
2018-06-27T01:24:22.103Z,13.98
2018-06-27T01:26:50.880Z,14.05
2018-06-27T01:29:19.724Z,14.11
2018-06-27T01:31:48.573Z,14.04
2018-06-27T01:34:17.422Z,14.05
2018-06-27T01:36:46.255Z,14.10
2018-06-27T01:39:15.040Z,14.11
2018-06-27T01:41:43.808Z,14.21
2018-06-27T01:44:12.646Z,14.30
2018-06-27T01:46:41.428Z,14.40
2018-06-27T01:49:10.194Z,14.48
2018-06-27T01:51:39.356Z,14.42
2018-06-27T01:54:08.132Z,14.31
2018-06-27T01:56:36.920Z,14.35
2018-06-27T01:59:05.784Z,14.34
2018-06-27T02:01:34.581Z,14.33
2018-06-27T02:04:03.368Z,13.98
2018-06-27T02:06:32.315Z,14.14
2018-06-27T02:09:01.121Z,14.18
2018-06-27T02:11:29.949Z,14.29
2018-06-27T02:13:58.724Z,14.29
2018-06-27T02:16:27.509Z,14.26
2018-06-27T02:18:56.339Z,14.31
2018-06-27T02:21:25.201Z,14.52
2018-06-27T02:23:53.968Z,14.57
2018-06-27T02:26:22.793Z,14.60
2018-06-27T02:28:51.578Z,14.54
2018-06-27T02:31:20.424Z,14.60
2018-06-27T02:33:49.198Z,14.54
2018-06-27T02:36:18.005Z,14.45
2018-06-27T02:38:46.782Z,14.44
2018-06-27T02:41:15.551Z,14.45
2018-06-27T02:43:44.524Z,14.42
2018-06-27T02:46:13.324Z,14.46
2018-06-27T02:48:42.114Z,14.46
2018-06-27T02:51:11.102Z,14.52
2018-06-27T02:53:40.248Z,14.35
2018-06-27T02:56:10.832Z,14.42
2018-06-27T02:58:39.694Z,14.48
2018-06-27T03:01:08.477Z,14.57
2018-06-27T03:03:37.277Z,14.46
2018-06-27T03:06:06.447Z,14.39
2018-06-27T03:08:35.224Z,14.37
2018-06-27T03:11:04.033Z,14.35
2018-06-27T03:13:32.881Z,14.39
2018-06-27T03:16:01.681Z,14.26
2018-06-27T03:18:30.479Z,14.23
2018-06-27T03:20:59.319Z,14.34
2018-06-27T03:23:28.076Z,14.28
2018-06-27T03:25:56.877Z,14.23
2018-06-27T03:28:26.008Z,14.28
2018-06-27T03:30:55.619Z,14.32
2018-06-27T03:33:24.386Z,14.35
2018-06-27T03:35:53.353Z,14.33
2018-06-27T03:38:22.113Z,14.37
2018-06-27T03:40:50.923Z,14.42
2018-06-27T03:43:19.723Z,15.23
2018-06-27T03:45:48.505Z,15.68
2018-06-27T03:48:17.259Z,15.63
2018-06-27T03:50:46.208Z,15.49
2018-06-27T03:53:14.971Z,15.28
2018-06-27T03:55:43.769Z,15.12
2018-06-27T03:58:12.685Z,15.06
2018-06-27T04:00:41.456Z,14.97
2018-06-27T04:03:10.236Z,14.96
2018-06-27T04:05:39.057Z,14.90
2018-06-27T04:08:07.857Z,14.88
2018-06-27T04:10:36.691Z,14.94
2018-06-27T04:13:05.788Z,14.90
2018-06-27T04:15:36.868Z,14.89
2018-06-27T04:18:05.826Z,14.93
2018-06-27T04:20:34.892Z,14.91
2018-06-27T04:23:03.672Z,14.94
2018-06-27T04:25:32.461Z,14.91
2018-06-27T04:28:01.425Z,14.95
2018-06-27T04:30:30.200Z,15.08
2018-06-27T04:32:58.971Z,15.99
2018-06-27T04:35:27.976Z,16.55
2018-06-27T04:37:56.703Z,16.52
2018-06-27T04:40:25.479Z,16.42
2018-06-27T04:42:54.443Z,16.92
2018-06-27T04:45:23.333Z,16.97
2018-06-27T04:47:52.115Z,16.75
2018-06-27T04:50:20.968Z,16.49
2018-06-27T04:52:49.731Z,16.25
2018-06-27T04:55:18.580Z,16.09
2018-06-27T04:57:47.377Z,16.13
2018-06-27T05:00:16.135Z,16.17
2018-06-27T05:02:44.958Z,15.96
2018-06-27T05:05:13.951Z,15.78
2018-06-27T05:07:42.747Z,15.63
2018-06-27T05:10:11.521Z,15.53
2018-06-27T05:12:41.192Z,15.56
2018-06-27T05:15:10.002Z,15.49
2018-06-27T05:17:38.798Z,15.41
2018-06-27T05:20:07.789Z,15.39
2018-06-27T05:22:36.580Z,15.32
2018-06-27T05:25:05.464Z,15.24
2018-06-27T05:27:34.368Z,15.25
2018-06-27T05:30:03.091Z,15.23
2018-06-27T05:32:31.938Z,15.21
2018-06-27T05:35:00.722Z,15.24
2018-06-27T05:37:29.519Z,15.18
2018-06-27T05:39:58.292Z,15.16
2018-06-27T05:42:27.071Z,15.15
2018-06-27T05:44:55.848Z,15.16
2018-06-27T05:47:24.653Z,15.24
2018-06-27T05:49:53.448Z,15.25
2018-06-27T05:52:22.236Z,15.24
2018-06-27T05:54:56.419Z,15.31
2018-06-27T05:57:25.207Z,15.28
2018-06-27T05:59:53.977Z,15.32
2018-06-27T06:02:22.831Z,15.36
2018-06-27T06:04:51.636Z,15.37
2018-06-27T06:07:20.425Z,15.37
2018-06-27T06:09:49.628Z,15.37
2018-06-27T06:12:18.403Z,15.38
2018-06-27T06:14:47.169Z,15.40
2018-06-27T06:17:17.142Z,15.43
2018-06-27T06:19:45.978Z,15.56
2018-06-27T06:22:14.806Z,15.62
2018-06-27T06:24:44.967Z,16.12
2018-06-27T06:27:14.768Z,16.73
2018-06-27T06:29:44.717Z,16.80
2018-06-27T06:32:13.955Z,17.04
2018-06-27T06:34:42.744Z,17.46
2018-06-27T06:37:11.948Z,17.77
2018-06-27T06:39:40.758Z,17.98
2018-06-27T06:42:09.539Z,17.82
2018-06-27T06:44:38.323Z,17.54
2018-06-27T06:47:07.309Z,17.36
2018-06-27T06:49:36.075Z,17.11
2018-06-27T06:52:04.923Z,16.78
2018-06-27T06:54:34.357Z,16.49
2018-06-27T06:57:03.209Z,16.43
2018-06-27T06:59:31.979Z,16.37
2018-06-27T07:02:00.821Z,16.27
2018-06-27T07:04:29.626Z,16.60
2018-06-27T07:06:58.419Z,16.86
2018-06-27T07:09:27.322Z,17.01
2018-06-27T07:11:56.124Z,17.52
2018-06-27T07:14:24.911Z,17.91
2018-06-27T07:16:53.880Z,18.15
2018-06-27T07:19:22.681Z,18.26
2018-06-27T07:21:51.448Z,18.16
2018-06-27T07:24:20.285Z,17.96
2018-06-27T07:26:49.223Z,17.81
2018-06-27T07:29:18.019Z,17.90
2018-06-27T07:31:46.848Z,17.93
2018-06-27T07:34:15.627Z,17.90
2018-06-27T07:36:44.432Z,17.64
2018-06-27T07:39:13.292Z,17.41
2018-06-27T07:41:42.108Z,17.29
2018-06-27T07:44:10.929Z,17.01
2018-06-27T07:46:39.906Z,16.85
2018-06-27T07:49:08.681Z,16.70
2018-06-27T07:51:37.464Z,16.60
2018-06-27T07:54:06.326Z,16.57
2018-06-27T07:56:35.190Z,16.56
2018-06-27T07:59:04.089Z,16.57
2018-06-27T08:01:32.897Z,16.48
2018-06-27T08:04:01.696Z,16.37
2018-06-27T08:06:46.465Z,16.19
2018-06-27T08:09:15.474Z,15.90
2018-06-27T08:11:44.457Z,16.00
2018-06-27T08:14:13.306Z,15.93
2018-06-27T08:16:42.110Z,15.83
2018-06-27T08:19:10.976Z,15.93
2018-06-27T08:21:39.987Z,16.33
2018-06-27T08:24:08.853Z,16.57
2018-06-27T08:26:37.640Z,16.71
2018-06-27T08:29:06.622Z,16.69
2018-06-27T08:31:35.426Z,16.68
2018-06-27T08:34:04.269Z,16.65
2018-06-27T08:36:33.415Z,16.70
2018-06-27T08:39:02.256Z,16.56
2018-06-27T08:41:31.093Z,16.62
2018-06-27T08:44:00.077Z,16.58
2018-06-27T08:46:28.866Z,16.68
2018-06-27T08:48:57.736Z,16.73
2018-06-27T08:51:26.781Z,16.56
2018-06-27T08:53:55.603Z,16.79
2018-06-27T08:56:24.523Z,16.79
2018-06-27T08:58:53.736Z,16.82
2018-06-27T09:01:22.545Z,16.77
2018-06-27T09:03:51.375Z,16.57
2018-06-27T09:06:20.326Z,16.64
2018-06-27T18:28:57.839Z,15.73
2018-06-27T18:31:26.763Z,15.72
2018-06-27T18:33:55.640Z,15.75
2018-06-27T18:36:24.495Z,15.75
2018-06-27T18:38:53.389Z,15.76
2018-06-27T18:41:22.364Z,15.71
2018-06-27T18:43:51.145Z,15.77
2018-06-27T18:46:20.093Z,15.76
2018-06-27T18:48:48.955Z,15.76
2018-06-27T18:51:17.787Z,15.78
2018-06-27T18:53:46.677Z,15.73
2018-06-27T18:56:15.496Z,15.82
2018-06-27T18:58:44.426Z,16.26
2018-06-27T19:01:13.325Z,16.31
2018-06-27T19:03:42.180Z,16.16
2018-06-27T19:06:11.069Z,15.80
2018-06-27T19:08:40.097Z,15.78
2018-06-27T19:11:08.940Z,15.76
2018-06-27T19:13:37.763Z,15.71
2018-06-27T19:16:06.977Z,15.73
2018-06-27T19:18:35.813Z,15.72
2018-06-27T19:21:04.686Z,15.60
2018-06-27T19:23:33.829Z,16.22
2018-06-27T19:26:02.666Z,16.79
2018-06-27T19:28:31.476Z,16.78
2018-06-27T19:31:00.607Z,16.65
2018-06-27T19:33:29.415Z,16.50
2018-06-27T19:35:58.286Z,16.39
2018-06-27T19:38:27.334Z,16.30
2018-06-27T19:40:56.162Z,16.24
2018-06-27T19:43:25.007Z,16.19
2018-06-27T19:45:53.898Z,16.22
2018-06-27T19:48:22.714Z,16.18
2018-06-27T19:50:51.569Z,16.13
2018-06-27T19:53:20.369Z,16.16
2018-06-27T19:55:49.237Z,16.02
2018-06-27T19:58:18.200Z,15.93
2018-06-27T20:00:47.108Z,15.89
2018-06-27T20:03:15.960Z,15.83
2018-06-27T20:05:44.908Z,15.85
2018-06-27T20:08:13.960Z,15.81
2018-06-27T20:10:42.789Z,15.79
2018-06-27T20:13:11.612Z,15.84
2018-06-27T20:15:40.595Z,15.83
2018-06-27T20:18:09.520Z,15.79
2018-06-27T20:20:38.390Z,15.77
2018-06-27T20:23:07.580Z,15.76
2018-06-27T20:25:36.438Z,15.73
2018-06-27T20:28:05.318Z,15.69
2018-06-27T20:30:34.200Z,15.67
2018-06-27T20:33:03.012Z,15.65
2018-06-27T20:35:31.818Z,15.63
2018-06-27T20:38:01.105Z,15.68
2018-06-27T20:40:30.049Z,15.67
2018-06-27T20:42:58.846Z,15.64
2018-06-27T20:45:27.963Z,15.64
2018-06-27T20:47:56.789Z,15.60
2018-06-27T20:50:25.573Z,15.61
2018-06-27T20:52:54.500Z,15.62
2018-06-27T20:55:23.315Z,15.57
2018-06-27T20:57:52.141Z,15.49
2018-06-27T21:00:21.106Z,15.48
2018-06-27T21:02:49.901Z,15.48
2018-06-27T21:05:18.712Z,15.58
2018-06-27T21:07:47.549Z,15.59
2018-06-27T21:10:17.064Z,15.53
2018-06-27T21:12:45.844Z,15.55
2018-06-27T21:15:14.867Z,15.62
2018-06-27T21:17:43.676Z,15.62
2018-06-27T21:20:12.542Z,15.62
2018-06-27T21:22:41.709Z,15.67
2018-06-27T21:25:10.524Z,15.69
2018-06-27T21:27:39.313Z,15.69
2018-06-27T21:30:09.022Z,15.75
2018-06-27T21:32:37.812Z,15.81
2018-06-27T21:35:06.750Z,15.82
2018-06-27T21:37:35.619Z,15.82
2018-06-27T21:40:04.484Z,15.81
2018-06-27T21:42:33.304Z,15.77
2018-06-27T21:45:02.213Z,15.72
2018-06-27T21:47:31.007Z,15.72
2018-06-27T21:49:59.845Z,15.77
2018-06-27T21:52:29.017Z,15.64
2018-06-27T21:54:57.842Z,15.60
2018-06-27T21:57:27.239Z,15.57
2018-06-27T21:59:56.238Z,15.54
2018-06-27T22:02:25.082Z,15.51
2018-06-27T22:04:53.892Z,15.53
2018-06-27T22:07:22.725Z,15.50
2018-06-27T22:09:52.395Z,15.50
2018-06-27T22:12:21.181Z,15.37
2018-06-27T22:14:50.352Z,15.38
2018-06-27T22:17:19.153Z,15.39
2018-06-27T22:19:47.966Z,15.38
2018-06-27T22:22:16.797Z,15.34
2018-06-27T22:24:45.581Z,15.36
2018-06-27T22:27:14.382Z,15.44
2018-06-27T22:29:43.437Z,15.43
2018-06-27T22:32:12.271Z,15.44
2018-06-27T22:34:41.036Z,15.49
2018-06-27T22:37:09.925Z,15.55
2018-06-27T22:39:38.720Z,15.57
2018-06-27T22:42:07.579Z,15.59
2018-06-27T22:44:36.470Z,15.59
2018-06-27T22:47:05.495Z,15.61
2018-06-27T22:49:34.278Z,15.62
2018-06-27T22:52:03.206Z,15.62
2018-06-27T22:54:32.016Z,15.58
2018-06-27T22:57:00.825Z,15.54
2018-06-27T22:59:29.996Z,15.56
2018-06-27T23:01:58.768Z,15.55
2018-06-27T23:04:27.573Z,15.53
2018-06-27T23:06:56.565Z,15.52
2018-06-27T23:09:25.497Z,15.52
2018-06-27T23:11:54.305Z,15.50
2018-06-27T23:14:23.347Z,15.50
2018-06-27T23:16:52.293Z,15.52
2018-06-27T23:19:21.171Z,15.51
2018-06-27T23:21:50.292Z,15.51
2018-06-27T23:24:19.119Z,15.50
2018-06-27T23:26:47.904Z,15.48
2018-06-27T23:29:16.908Z,15.32
2018-06-27T23:31:45.733Z,15.42
2018-06-27T23:34:14.495Z,15.48
2018-06-27T23:36:43.466Z,15.54
2018-06-27T23:39:13.365Z,15.52
2018-06-27T23:41:43.600Z,15.50
2018-06-27T23:44:12.406Z,15.48
2018-06-27T23:46:41.193Z,15.48
2018-06-27T23:49:10.012Z,15.50
2018-06-27T23:51:38.911Z,15.56
2018-06-27T23:54:07.698Z,15.58
2018-06-27T23:56:36.496Z,15.60
2018-06-27T23:59:05.709Z,15.56
